Poplar Bluff, MO

7:36 PM CDT on September 02, 2014 (GMT -0500)
Corning | Change Station
CLOSE
Current Station
Airport
Location: Corning,
Elevation: 292 ft
Nearby Weather Stations

Elev 292 ft 36.40 °N, 90.65 °W | Updated 21 minutes ago

Thunderstorm
Thunderstorm
77 °F
Feels Like 77 °F
N
0
Wind Variable Wind from North
Gusts 2 mph

Today
High -- | Low -- °F
--% Chance of Precip.
Yesterday
High -- | Low -- °F
Precip. -- in
6:33 AM 7:28 PM
First Quarter, 56% visible
Pressure 29.96 in
Visibility 10.0 miles
Clouds
Dew Point 72 °F
Humidity 83%
Rainfall 0.02 in
Snow Depth Not available.
UV Not available.
Pollen 8.70 out of 12
Air Quality Not available.
Flu Activity Not available.
METAR K4M9 030015Z AUTO 00000KT 10SM 25/22 A2996 RMK AO2 LTG DSNT SE AND S

More Conditions Fewer Conditions

Pressure 29.96 in
Visibility 10.0 miles
Clouds
Dew Point 72 °F
Humidity 83%
Rainfall 0.02 in
Snow Depth Not available.
UV Not available.
Pollen 8.70 out of 12
Air Quality Not available.
Flu Activity Not available.
METAR K4M9 030015Z AUTO 00000KT 10SM 25/22 A2996 RMK AO2 LTG DSNT SE AND S

More Conditions Fewer Conditions

10-Day Weather Forecast

Almanac

Astronomy

Sep. 02, 2014 Rise Set
Actual Time 6:33 AM CDT 7:28 PM CDT
Civil Twilight 6:07 AM CDT 7:54 PM CDT
Nautical Twilight 5:35 AM CDT 8:26 PM CDT
Astronomical Twilight 5:03 AM CDT 8:58 PM CDT
Moon 2:07 PM CDT (9/2) No Moon Set
Length of Visible Light 13h 47m
Length of Day
12h 55m
Tomorrow will be 2m 15s shorter.
First Quarter, 56% of the Moon is Illuminated
Today
First Quarter
Sep 8
Full
Sep 15
Last Quarter
Sep 24
New
Oct 1
First Quarter

Today's Extremes

State Highs State Lows

Community

WunderPhotos

Upload Photos

1,749,812 photos uploaded!

Nearby

Snow Depth

Station Depth Elevation
No new snow has been reported.

Earthquake Activity

City Distance Mag. Time & Date
Tiptonville, Tennessee 58 miles 2.9 11:19 PM CDT
2014-08-31
Minimum magnitude displayed is 2.5.

Coastal Water Temperatures

Place Temperature
No Stations Reporting

Nearby Weather Stations